sensor_id;sensor_type;location;lat;lon;timestamp;pressure;altitude;pressure_sealevel;temperature;humidity
18500;BME280;9379;52.134;11.576;2023-06-22T00:02:03;101221.78;;;24.44;86.60
18500;BME280;9379;52.134;11.576;2023-06-22T00:04:30;101228.06;;;24.44;86.90
18500;BME280;9379;52.134;11.576;2023-06-22T00:06:57;101213.19;;;24.27;86.60
18500;BME280;9379;52.134;11.576;2023-06-22T00:09:25;101217.81;;;24.20;87.11
18500;BME280;9379;52.134;11.576;2023-06-22T00:11:52;101224.28;;;24.06;88.73
18500;BME280;9379;52.134;11.576;2023-06-22T00:14:18;101198.19;;;23.98;88.09
18500;BME280;9379;52.134;11.576;2023-06-22T00:16:45;101213.63;;;24.11;88.30
18500;BME280;9379;52.134;11.576;2023-06-22T00:19:14;101219.91;;;24.11;88.34
18500;BME280;9379;52.134;11.576;2023-06-22T00:21:40;101203.59;;;23.98;88.67
18500;BME280;9379;52.134;11.576;2023-06-22T00:24:07;101209.03;;;24.05;88.67
18500;BME280;9379;52.134;11.576;2023-06-22T00:26:36;101206.53;;;23.90;88.29
18500;BME280;9379;52.134;11.576;2023-06-22T00:29:02;101216.53;;;23.96;88.82
18500;BME280;9379;52.134;11.576;2023-06-22T00:31:29;101215.53;;;23.97;88.79
18500;BME280;9379;52.134;11.576;2023-06-22T00:33:56;101222.59;;;23.78;90.27
18500;BME280;9379;52.134;11.576;2023-06-22T00:36:23;101212.34;;;23.67;90.38
18500;BME280;9379;52.134;11.576;2023-06-22T00:38:50;101220.91;;;23.71;90.13
18500;BME280;9379;52.134;11.576;2023-06-22T00:41:17;101233.00;;;23.68;90.00
18500;BME280;9379;52.134;11.576;2023-06-22T00:43:45;101215.31;;;23.85;87.83
18500;BME280;9379;52.134;11.576;2023-06-22T00:46:12;101227.41;;;23.96;87.54
18500;BME280;9379;52.134;11.576;2023-06-22T00:48:40;101221.34;;;24.01;87.38
18500;BME280;9379;52.134;11.576;2023-06-22T00:51:07;101228.22;;;23.77;88.81
18500;BME280;9379;52.134;11.576;2023-06-22T00:53:34;101244.94;;;23.80;88.62
18500;BME280;9379;52.134;11.576;2023-06-22T00:56:02;101226.16;;;24.05;87.52
18500;BME280;9379;52.134;11.576;2023-06-22T00:58:29;101244.31;;;23.78;88.66
18500;BME280;9379;52.134;11.576;2023-06-22T01:00:58;101230.75;;;23.78;87.64
18500;BME280;9379;52.134;11.576;2023-06-22T01:03:28;101224.41;;;23.51;88.85
18500;BME280;9379;52.134;11.576;2023-06-22T01:06:02;101242.41;;;23.66;88.54
18500;BME280;9379;52.134;11.576;2023-06-22T01:08:40;101237.78;;;23.60;88.13
18500;BME280;9379;52.134;11.576;2023-06-22T01:11:10;101245.28;;;23.51;88.86
18500;BME280;9379;52.134;11.576;2023-06-22T01:13:55;101257.25;;;23.83;87.38
18500;BME280;9379;52.134;11.576;2023-06-22T01:16:30;101249.00;;;23.50;89.15
18500;BME280;9379;52.134;11.576;2023-06-22T01:19:09;101253.63;;;23.56;88.83
18500;BME280;9379;52.134;11.576;2023-06-22T01:21:41;101257.84;;;23.65;88.19
18500;BME280;9379;52.134;11.576;2023-06-22T01:24:16;101251.75;;;23.56;88.02
18500;BME280;9379;52.134;11.576;2023-06-22T01:26:55;101243.16;;;23.40;88.78
18500;BME280;9379;52.134;11.576;2023-06-22T01:29:26;101252.78;;;23.55;88.64
18500;BME280;9379;52.134;11.576;2023-06-22T01:31:54;101249.00;;;23.50;88.25
18500;BME280;9379;52.134;11.576;2023-06-22T01:34:23;101229.63;;;23.53;87.83
18500;BME280;9379;52.134;11.576;2023-06-22T01:36:51;101231.69;;;23.57;87.75
18500;BME280;9379;52.134;11.576;2023-06-22T01:39:19;101232.94;;;23.42;89.01
18500;BME280;9379;52.134;11.576;2023-06-22T01:41:47;101226.22;;;23.31;89.60
18500;BME280;9379;52.134;11.576;2023-06-22T01:44:15;101235.34;;;23.23;89.80
18500;BME280;9379;52.134;11.576;2023-06-22T01:46:44;101215.78;;;23.28;89.23
18500;BME280;9379;52.134;11.576;2023-06-22T01:49:12;101219.31;;;23.28;88.98
18500;BME280;9379;52.134;11.576;2023-06-22T01:51:39;101212.81;;;23.23;89.78
18500;BME280;9379;52.134;11.576;2023-06-22T01:54:06;101202.16;;;23.15;89.30
18500;BME280;9379;52.134;11.576;2023-06-22T01:56:34;101196.72;;;23.15;90.06
18500;BME280;9379;52.134;11.576;2023-06-22T01:59:05;101204.50;;;23.31;89.22
18500;BME280;9379;52.134;11.576;2023-06-22T02:01:41;101197.56;;;23.15;89.89
18500;BME280;9379;52.134;11.576;2023-06-22T02:04:13;101203.88;;;23.29;90.08
18500;BME280;9379;52.134;11.576;2023-06-22T02:06:43;101204.31;;;23.33;89.00
18500;BME280;9379;52.134;11.576;2023-06-22T02:09:15;101203.34;;;22.92;91.82
18500;BME280;9379;52.134;11.576;2023-06-22T02:11:45;101209.19;;;23.03;90.27
18500;BME280;9379;52.134;11.576;2023-06-22T02:14:13;101209.59;;;22.99;90.46
18500;BME280;9379;52.134;11.576;2023-06-22T02:16:40;101195.63;;;22.96;89.53
18500;BME280;9379;52.134;11.576;2023-06-22T02:19:09;101205.56;;;23.30;88.64
18500;BME280;9379;52.134;11.576;2023-06-22T02:21:36;101210.28;;;23.15;89.56
18500;BME280;9379;52.134;11.576;2023-06-22T02:24:04;101224.13;;;22.85;91.37
18500;BME280;9379;52.134;11.576;2023-06-22T02:26:31;101224.72;;;22.81;91.85
18500;BME280;9379;52.134;11.576;2023-06-22T02:28:59;101232.81;;;22.74;91.45
18500;BME280;9379;52.134;11.576;2023-06-22T02:31:26;101223.00;;;23.08;89.72
18500;BME280;9379;52.134;11.576;2023-06-22T02:33:56;101213.41;;;23.05;90.19
18500;BME280;9379;52.134;11.576;2023-06-22T02:36:24;101220.03;;;23.03;89.92
18500;BME280;9379;52.134;11.576;2023-06-22T02:38:52;101230.09;;;22.74;90.90
18500;BME280;9379;52.134;11.576;2023-06-22T02:41:19;101223.63;;;22.75;90.98
18500;BME280;9379;52.134;11.576;2023-06-22T02:43:47;101231.56;;;22.77;91.05
18500;BME280;9379;52.134;11.576;2023-06-22T02:46:14;101225.25;;;22.97;90.19
18500;BME280;9379;52.134;11.576;2023-06-22T02:48:40;101237.13;;;22.96;90.13
18500;BME280;9379;52.134;11.576;2023-06-22T02:51:08;101227.47;;;22.87;91.09
18500;BME280;9379;52.134;11.576;2023-06-22T02:53:36;101232.13;;;22.93;90.29
18500;BME280;9379;52.134;11.576;2023-06-22T02:56:03;101215.44;;;22.68;91.30
18500;BME280;9379;52.134;11.576;2023-06-22T02:58:31;101220.38;;;22.86;91.12
18500;BME280;9379;52.134;11.576;2023-06-22T03:01:04;101223.66;;;23.23;89.86
18500;BME280;9379;52.134;11.576;2023-06-22T03:03:31;101220.53;;;23.26;88.73
18500;BME280;9379;52.134;11.576;2023-06-22T03:05:57;101204.00;;;23.08;89.77
18500;BME280;9379;52.134;11.576;2023-06-22T03:08:26;101229.09;;;23.23;89.06
18500;BME280;9379;52.134;11.576;2023-06-22T03:10:55;101215.53;;;23.16;89.34
18500;BME280;9379;52.134;11.576;2023-06-22T03:13:22;101219.72;;;23.19;89.78
18500;BME280;9379;52.134;11.576;2023-06-22T03:15:48;101221.88;;;23.50;88.71
18500;BME280;9379;52.134;11.576;2023-06-22T03:18:15;101227.31;;;23.56;88.20
18500;BME280;9379;52.134;11.576;2023-06-22T03:20:42;101229.09;;;23.23;89.77
18500;BME280;9379;52.134;11.576;2023-06-22T03:23:09;101208.59;;;23.07;91.17
18500;BME280;9379;52.134;11.576;2023-06-22T03:25:35;101236.69;;;22.93;91.81
18500;BME280;9379;52.134;11.576;2023-06-22T03:28:04;101236.13;;;23.04;91.03
18500;BME280;9379;52.134;11.576;2023-06-22T03:30:30;101239.44;;;22.99;91.61
18500;BME280;9379;52.134;11.576;2023-06-22T03:32:57;101243.38;;;22.97;91.30
18500;BME280;9379;52.134;11.576;2023-06-22T03:35:24;101260.91;;;22.94;91.76
18500;BME280;9379;52.134;11.576;2023-06-22T03:37:51;101262.56;;;23.50;89.93
18500;BME280;9379;52.134;11.576;2023-06-22T03:40:18;101266.03;;;23.24;91.40
18500;BME280;9379;52.134;11.576;2023-06-22T03:42:45;101261.06;;;23.27;90.83
18500;BME280;9379;52.134;11.576;2023-06-22T03:45:13;101268.69;;;23.11;91.35
18500;BME280;9379;52.134;11.576;2023-06-22T03:47:40;101245.06;;;23.52;89.35
18500;BME280;9379;52.134;11.576;2023-06-22T03:50:07;101268.84;;;23.50;89.81
18500;BME280;9379;52.134;11.576;2023-06-22T03:52:34;101274.69;;;23.54;90.11
18500;BME280;9379;52.134;11.576;2023-06-22T03:55:01;101273.97;;;23.25;92.13
18500;BME280;9379;52.134;11.576;2023-06-22T03:57:31;101271.97;;;23.47;91.31
18500;BME280;9379;52.134;11.576;2023-06-22T03:59:59;101268.25;;;23.62;89.34
18500;BME280;9379;52.134;11.576;2023-06-22T04:02:28;101269.63;;;23.99;86.18
18500;BME280;9379;52.134;11.576;2023-06-22T04:04:54;101266.72;;;24.40;83.87
18500;BME280;9379;52.134;11.576;2023-06-22T04:07:21;101277.78;;;24.52;83.83
18500;BME280;9379;52.134;11.576;2023-06-22T04:09:48;101269.16;;;23.95;85.12
18500;BME280;9379;52.134;11.576;2023-06-22T04:12:15;101287.38;;;24.01;87.74
18500;BME280;9379;52.134;11.576;2023-06-22T04:14:41;101287.63;;;24.39;86.40
18500;BME280;9379;52.134;11.576;2023-06-22T04:17:08;101290.06;;;23.95;86.92
18500;BME280;9379;52.134;11.576;2023-06-22T04:19:36;101283.00;;;24.40;84.27
18500;BME280;9379;52.134;11.576;2023-06-22T04:22:03;101282.78;;;24.22;84.67
18500;BME280;9379;52.134;11.576;2023-06-22T04:24:32;101286.59;;;24.34;83.21
18500;BME280;9379;52.134;11.576;2023-06-22T04:26:59;101276.75;;;24.46;83.75
18500;BME280;9379;52.134;11.576;2023-06-22T04:29:28;101281.72;;;24.82;81.94
18500;BME280;9379;52.134;11.576;2023-06-22T04:31:55;101259.16;;;24.68;82.58
18500;BME280;9379;52.134;11.576;2023-06-22T04:34:24;101270.56;;;25.10;81.25
18500;BME280;9379;52.134;11.576;2023-06-22T04:36:53;101276.06;;;24.84;82.49
18500;BME280;9379;52.134;11.576;2023-06-22T04:39:20;101272.91;;;24.93;82.98
18500;BME280;9379;52.134;11.576;2023-06-22T04:41:47;101277.72;;;25.05;82.41
18500;BME280;9379;52.134;11.576;2023-06-22T04:44:15;101268.69;;;24.97;81.47
18500;BME280;9379;52.134;11.576;2023-06-22T04:46:50;101267.41;;;25.20;80.07
18500;BME280;9379;52.134;11.576;2023-06-22T04:49:20;101263.44;;;25.16;80.71
18500;BME280;9379;52.134;11.576;2023-06-22T04:51:47;101272.56;;;25.35;79.89
18500;BME280;9379;52.134;11.576;2023-06-22T04:54:15;101263.75;;;25.39;80.22
18500;BME280;9379;52.134;11.576;2023-06-22T04:56:42;101263.91;;;25.06;80.27
18500;BME280;9379;52.134;11.576;2023-06-22T04:59:11;101257.59;;;24.99;80.75
18500;BME280;9379;52.134;11.576;2023-06-22T05:01:38;101255.34;;;25.02;81.13
18500;BME280;9379;52.134;11.576;2023-06-22T05:04:05;101247.50;;;25.26;80.44
18500;BME280;9379;52.134;11.576;2023-06-22T05:06:33;101257.81;;;24.97;81.05
18500;BME280;9379;52.134;11.576;2023-06-22T05:09:00;101253.25;;;25.05;81.00
18500;BME280;9379;52.134;11.576;2023-06-22T05:11:28;101249.34;;;25.32;80.82
18500;BME280;9379;52.134;11.576;2023-06-22T05:13:55;101253.84;;;25.00;80.98
18500;BME280;9379;52.134;11.576;2023-06-22T05:16:22;101256.50;;;25.26;80.72
18500;BME280;9379;52.134;11.576;2023-06-22T05:18:51;101247.53;;;25.19;81.62
18500;BME280;9379;52.134;11.576;2023-06-22T05:21:21;101243.31;;;25.23;81.84
18500;BME280;9379;52.134;11.576;2023-06-22T05:23:48;101254.63;;;25.20;82.03
18500;BME280;9379;52.134;11.576;2023-06-22T05:26:15;101251.16;;;24.93;83.10
18500;BME280;9379;52.134;11.576;2023-06-22T05:28:43;101248.03;;;25.03;82.55
18500;BME280;9379;52.134;11.576;2023-06-22T05:31:12;101241.00;;;25.27;81.93
18500;BME280;9379;52.134;11.576;2023-06-22T05:33:39;101232.63;;;25.28;80.98
18500;BME280;9379;52.134;11.576;2023-06-22T05:36:05;101233.16;;;25.06;82.52
18500;BME280;9379;52.134;11.576;2023-06-22T05:38:33;101221.75;;;25.22;82.48
18500;BME280;9379;52.134;11.576;2023-06-22T05:40:59;101235.25;;;25.48;81.90
18500;BME280;9379;52.134;11.576;2023-06-22T05:43:26;101236.94;;;25.43;81.80
18500;BME280;9379;52.134;11.576;2023-06-22T05:45:54;101239.63;;;25.49;81.48
18500;BME280;9379;52.134;11.576;2023-06-22T05:48:21;101226.56;;;25.26;81.95
18500;BME280;9379;52.134;11.576;2023-06-22T05:50:48;101232.09;;;25.51;81.49
18500;BME280;9379;52.134;11.576;2023-06-22T05:53:15;101240.03;;;25.53;81.58
18500;BME280;9379;52.134;11.576;2023-06-22T05:55:42;101222.31;;;25.69;80.55
18500;BME280;9379;52.134;11.576;2023-06-22T05:58:09;101232.19;;;25.70;81.22
18500;BME280;9379;52.134;11.576;2023-06-22T06:00:35;101225.63;;;25.84;81.23
18500;BME280;9379;52.134;11.576;2023-06-22T06:03:04;101233.19;;;25.82;81.40
18500;BME280;9379;52.134;11.576;2023-06-22T06:05:30;101234.56;;;25.59;82.02
18500;BME280;9379;52.134;11.576;2023-06-22T06:07:57;101230.28;;;25.77;81.79
18500;BME280;9379;52.134;11.576;2023-06-22T06:10:24;101232.63;;;25.28;82.99
18500;BME280;9379;52.134;11.576;2023-06-22T06:12:51;101230.34;;;25.70;81.92
18500;BME280;9379;52.134;11.576;2023-06-22T06:15:18;101231.84;;;25.91;81.18
18500;BME280;9379;52.134;11.576;2023-06-22T06:17:46;101218.44;;;25.89;81.73
18500;BME280;9379;52.134;11.576;2023-06-22T06:20:14;101215.31;;;25.54;82.65
18500;BME280;9379;52.134;11.576;2023-06-22T06:22:41;101229.72;;;25.93;81.60
18500;BME280;9379;52.134;11.576;2023-06-22T06:25:09;101233.09;;;25.95;81.70
18500;BME280;9379;52.134;11.576;2023-06-22T06:27:41;101226.59;;;25.96;81.66
18500;BME280;9379;52.134;11.576;2023-06-22T06:30:08;101236.41;;;25.97;81.99
18500;BME280;9379;52.134;11.576;2023-06-22T06:32:35;101233.41;;;26.30;80.32
18500;BME280;9379;52.134;11.576;2023-06-22T06:35:02;101219.88;;;26.67;79.79
18500;BME280;9379;52.134;11.576;2023-06-22T06:37:30;101219.66;;;27.05;77.97
18500;BME280;9379;52.134;11.576;2023-06-22T06:39:57;101215.72;;;27.31;77.09
18500;BME280;9379;52.134;11.576;2023-06-22T06:42:24;101211.72;;;27.33;77.36
18500;BME280;9379;52.134;11.576;2023-06-22T06:44:50;101224.34;;;28.41;73.41
18500;BME280;9379;52.134;11.576;2023-06-22T06:47:17;101205.31;;;27.40;75.98
18500;BME280;9379;52.134;11.576;2023-06-22T06:49:44;101208.88;;;26.92;76.52
18500;BME280;9379;52.134;11.576;2023-06-22T06:52:11;101218.34;;;27.08;78.37
18500;BME280;9379;52.134;11.576;2023-06-22T06:54:39;101220.78;;;27.46;77.88
18500;BME280;9379;52.134;11.576;2023-06-22T06:57:07;101227.13;;;27.28;77.99
18500;BME280;9379;52.134;11.576;2023-06-22T06:59:36;101216.09;;;27.04;77.11
18500;BME280;9379;52.134;11.576;2023-06-22T07:02:03;101209.53;;;27.24;76.82
18500;BME280;9379;52.134;11.576;2023-06-22T07:04:30;101217.81;;;26.99;78.38
18500;BME280;9379;52.134;11.576;2023-06-22T07:06:56;101201.69;;;26.79;78.33
18500;BME280;9379;52.134;11.576;2023-06-22T07:09:23;101216.16;;;26.98;78.13
18500;BME280;9379;52.134;11.576;2023-06-22T07:11:51;101209.41;;;26.82;78.60
18500;BME280;9379;52.134;11.576;2023-06-22T07:14:18;101216.09;;;27.04;78.81
18500;BME280;9379;52.134;11.576;2023-06-22T07:16:44;101212.75;;;27.02;77.62
18500;BME280;9379;52.134;11.576;2023-06-22T07:19:12;101205.84;;;27.00;77.43
18500;BME280;9379;52.134;11.576;2023-06-22T07:21:39;101204.81;;;27.31;77.27
18500;BME280;9379;52.134;11.576;2023-06-22T07:24:06;101210.41;;;27.06;78.28
18500;BME280;9379;52.134;11.576;2023-06-22T07:26:33;101204.56;;;27.21;77.53
18500;BME280;9379;52.134;11.576;2023-06-22T07:29:01;101211.38;;;27.12;77.61
18500;BME280;9379;52.134;11.576;2023-06-22T07:31:29;101209.25;;;26.95;78.50
18500;BME280;9379;52.134;11.576;2023-06-22T07:33:56;101207.00;;;27.11;78.43
18500;BME280;9379;52.134;11.576;2023-06-22T07:36:23;101206.75;;;27.12;78.05
18500;BME280;9379;52.134;11.576;2023-06-22T07:38:49;101179.66;;;27.29;77.12
18500;BME280;9379;52.134;11.576;2023-06-22T07:41:16;101209.84;;;27.76;77.17
18500;BME280;9379;52.134;11.576;2023-06-22T07:43:44;101198.25;;;27.92;77.75
18500;BME280;9379;52.134;11.576;2023-06-22T07:46:13;101208.00;;;28.11;75.36
18500;BME280;9379;52.134;11.576;2023-06-22T07:48:39;101213.31;;;27.71;75.39
18500;BME280;9379;52.134;11.576;2023-06-22T07:51:07;101200.50;;;27.83;75.54
18500;BME280;9379;52.134;11.576;2023-06-22T07:53:34;101200.78;;;28.05;74.41
18500;BME280;9379;52.134;11.576;2023-06-22T07:56:01;101199.69;;;27.95;74.69
18500;BME280;9379;52.134;11.576;2023-06-22T07:58:33;101198.13;;;27.87;74.77
18500;BME280;9379;52.134;11.576;2023-06-22T08:01:00;101208.34;;;27.80;76.50
18500;BME280;9379;52.134;11.576;2023-06-22T08:03:28;101197.28;;;27.75;74.07
18500;BME280;9379;52.134;11.576;2023-06-22T08:05:55;101204.19;;;27.89;74.73
18500;BME280;9379;52.134;11.576;2023-06-22T08:08:22;101189.09;;;27.98;74.10
18500;BME280;9379;52.134;11.576;2023-06-22T08:10:48;101208.50;;;28.20;73.78
18500;BME280;9379;52.134;11.576;2023-06-22T08:13:15;101206.47;;;27.92;73.88
18500;BME280;9379;52.134;11.576;2023-06-22T08:15:42;101208.66;;;28.60;73.37
18500;BME280;9379;52.134;11.576;2023-06-22T08:18:09;101210.63;;;28.76;72.55
18500;BME280;9379;52.134;11.576;2023-06-22T08:20:37;101204.53;;;29.26;70.15
18500;BME280;9379;52.134;11.576;2023-06-22T08:23:04;101200.38;;;28.95;70.57
18500;BME280;9379;52.134;11.576;2023-06-22T08:25:31;101195.34;;;29.04;70.58
18500;BME280;9379;52.134;11.576;2023-06-22T08:27:58;101179.66;;;28.99;69.85
18500;BME280;9379;52.134;11.576;2023-06-22T08:30:25;101192.88;;;28.79;72.75
18500;BME280;9379;52.134;11.576;2023-06-22T08:32:52;101193.19;;;28.54;70.90
18500;BME280;9379;52.134;11.576;2023-06-22T08:35:19;101202.47;;;28.30;72.20
18500;BME280;9379;52.134;11.576;2023-06-22T08:37:47;101200.78;;;28.52;70.77
18500;BME280;9379;52.134;11.576;2023-06-22T08:40:18;101205.75;;;28.08;72.75
18500;BME280;9379;52.134;11.576;2023-06-22T08:42:46;101204.63;;;28.39;71.42
18500;BME280;9379;52.134;11.576;2023-06-22T08:45:14;101198.28;;;28.15;74.41
18500;BME280;9379;52.134;11.576;2023-06-22T08:47:41;101202.22;;;28.43;71.39
18500;BME280;9379;52.134;11.576;2023-06-22T08:50:08;101195.13;;;28.94;69.92
18500;BME280;9379;52.134;11.576;2023-06-22T08:52:35;101177.31;;;29.20;68.62
18500;BME280;9379;52.134;11.576;2023-06-22T08:55:04;101174.28;;;29.33;68.06
18500;BME280;9379;52.134;11.576;2023-06-22T08:57:31;101176.09;;;28.99;68.97
18500;BME280;9379;52.134;11.576;2023-06-22T08:59:59;101177.09;;;29.38;68.32
18500;BME280;9379;52.134;11.576;2023-06-22T09:02:26;101185.41;;;29.55;68.38
18500;BME280;9379;52.134;11.576;2023-06-22T09:04:56;101171.53;;;29.61;69.56
18500;BME280;9379;52.134;11.576;2023-06-22T09:07:23;101180.00;;;29.60;67.41
18500;BME280;9379;52.134;11.576;2023-06-22T09:09:51;101179.41;;;29.75;68.90
18500;BME280;9379;52.134;11.576;2023-06-22T09:12:20;101178.19;;;30.16;67.82
18500;BME280;9379;52.134;11.576;2023-06-22T09:14:51;101184.06;;;29.29;70.26
18500;BME280;9379;52.134;11.576;2023-06-22T09:17:18;101189.38;;;29.47;71.01
18500;BME280;9379;52.134;11.576;2023-06-22T09:19:45;101184.00;;;30.03;68.10
18500;BME280;9379;52.134;11.576;2023-06-22T09:22:13;101180.47;;;29.28;68.89
18500;BME280;9379;52.134;11.576;2023-06-22T09:24:39;101175.66;;;28.67;71.17
18500;BME280;9379;52.134;11.576;2023-06-22T09:27:06;101161.28;;;29.12;70.53
18500;BME280;9379;52.134;11.576;2023-06-22T09:29:35;101173.03;;;29.52;67.93
18500;BME280;9379;52.134;11.576;2023-06-22T09:32:01;101171.44;;;29.28;68.55
18500;BME280;9379;52.134;11.576;2023-06-22T09:34:29;101168.88;;;29.38;69.54
18500;BME280;9379;52.134;11.576;2023-06-22T09:36:56;101166.25;;;29.43;67.99
18500;BME280;9379;52.134;11.576;2023-06-22T09:39:25;101162.88;;;29.24;68.81
18500;BME280;9379;52.134;11.576;2023-06-22T09:41:52;101161.03;;;29.42;69.29
18500;BME280;9379;52.134;11.576;2023-06-22T09:44:19;101149.47;;;29.40;68.32
18500;BME280;9379;52.134;11.576;2023-06-22T09:46:47;101152.16;;;29.51;69.22
18500;BME280;9379;52.134;11.576;2023-06-22T09:49:14;101150.28;;;28.95;71.60
18500;BME280;9379;52.134;11.576;2023-06-22T09:51:41;101136.66;;;28.71;72.10
18500;BME280;9379;52.134;11.576;2023-06-22T09:54:07;101134.53;;;29.30;69.68
18500;BME280;9379;52.134;11.576;2023-06-22T09:56:34;101138.50;;;29.40;70.09
18500;BME280;9379;52.134;11.576;2023-06-22T09:59:03;101139.97;;;29.59;69.04
18500;BME280;9379;52.134;11.576;2023-06-22T10:01:29;101142.31;;;29.84;69.48
18500;BME280;9379;52.134;11.576;2023-06-22T10:03:58;101134.31;;;30.16;68.10
18500;BME280;9379;52.134;11.576;2023-06-22T10:06:24;101138.06;;;29.93;70.66
18500;BME280;9379;52.134;11.576;2023-06-22T10:08:51;101138.28;;;30.64;68.01
18500;BME280;9379;52.134;11.576;2023-06-22T10:11:18;101137.50;;;30.90;65.77
18500;BME280;9379;52.134;11.576;2023-06-22T10:13:45;101131.09;;;31.28;65.09
18500;BME280;9379;52.134;11.576;2023-06-22T10:16:11;101126.38;;;31.02;64.31
18500;BME280;9379;52.134;11.576;2023-06-22T10:18:38;101125.72;;;30.68;66.74
18500;BME280;9379;52.134;11.576;2023-06-22T10:21:06;101102.31;;;30.43;65.87
18500;BME280;9379;52.134;11.576;2023-06-22T10:23:33;101106.25;;;30.47;70.03
18500;BME280;9379;52.134;11.576;2023-06-22T10:25:59;101088.50;;;30.33;67.81
18500;BME280;9379;52.134;11.576;2023-06-22T10:28:26;101094.25;;;30.75;65.73
18500;BME280;9379;52.134;11.576;2023-06-22T10:30:53;101100.19;;;31.16;69.17
18500;BME280;9379;52.134;11.576;2023-06-22T10:33:20;101111.34;;;30.39;67.05
18500;BME280;9379;52.134;11.576;2023-06-22T10:35:46;101103.81;;;30.51;68.79
18500;BME280;9379;52.134;11.576;2023-06-22T10:38:15;101087.06;;;30.96;65.52
18500;BME280;9379;52.134;11.576;2023-06-22T10:40:42;101098.31;;;30.51;66.38
18500;BME280;9379;52.134;11.576;2023-06-22T10:43:11;101106.81;;;30.49;66.35
18500;BME280;9379;52.134;11.576;2023-06-22T10:45:37;101104.84;;;30.67;66.45
18500;BME280;9379;52.134;11.576;2023-06-22T10:48:04;101100.88;;;30.36;66.23
18500;BME280;9379;52.134;11.576;2023-06-22T10:50:31;101091.03;;;30.62;66.49
18500;BME280;9379;52.134;11.576;2023-06-22T10:52:58;101096.53;;;30.84;67.36
18500;BME280;9379;52.134;11.576;2023-06-22T10:55:26;101089.47;;;31.15;65.09
18500;BME280;9379;52.134;11.576;2023-06-22T10:57:53;101097.31;;;31.33;64.70
18500;BME280;9379;52.134;11.576;2023-06-22T11:00:20;101083.94;;;31.42;64.67
18500;BME280;9379;52.134;11.576;2023-06-22T11:02:47;101087.22;;;31.39;65.86
18500;BME280;9379;52.134;11.576;2023-06-22T11:05:14;101092.44;;;30.86;66.18
18500;BME280;9379;52.134;11.576;2023-06-22T11:07:42;101086.72;;;31.15;64.73
18500;BME280;9379;52.134;11.576;2023-06-22T11:10:09;101088.09;;;31.76;64.76
18500;BME280;9379;52.134;11.576;2023-06-22T11:12:38;101082.59;;;31.76;64.34
18500;BME280;9379;52.134;11.576;2023-06-22T11:15:05;101075.06;;;31.29;65.86
18500;BME280;9379;52.134;11.576;2023-06-22T11:17:32;101067.53;;;31.84;64.16
18500;BME280;9379;52.134;11.576;2023-06-22T11:19:59;101068.03;;;31.81;63.86
18500;BME280;9379;52.134;11.576;2023-06-22T11:22:26;101064.34;;;31.28;63.80
18500;BME280;9379;52.134;11.576;2023-06-22T11:24:53;101065.53;;;31.42;65.56
18500;BME280;9379;52.134;11.576;2023-06-22T11:27:20;101067.41;;;31.10;65.93
18500;BME280;9379;52.134;11.576;2023-06-22T11:29:48;101058.59;;;31.72;65.17
18500;BME280;9379;52.134;11.576;2023-06-22T11:32:15;101046.78;;;31.71;63.47
18500;BME280;9379;52.134;11.576;2023-06-22T11:34:42;101055.81;;;31.61;65.51
18500;BME280;9379;52.134;11.576;2023-06-22T11:37:08;101061.16;;;30.87;66.05
18500;BME280;9379;52.134;11.576;2023-06-22T11:39:35;101056.13;;;31.33;70.07
18500;BME280;9379;52.134;11.576;2023-06-22T11:42:02;101048.38;;;31.62;63.63
18500;BME280;9379;52.134;11.576;2023-06-22T11:44:29;101052.22;;;31.98;67.46
18500;BME280;9379;52.134;11.576;2023-06-22T11:46:57;101040.72;;;32.11;61.59
18500;BME280;9379;52.134;11.576;2023-06-22T11:49:26;101037.16;;;32.11;63.40
18500;BME280;9379;52.134;11.576;2023-06-22T11:51:52;101031.19;;;32.29;64.34
18500;BME280;9379;52.134;11.576;2023-06-22T11:54:19;101031.78;;;31.84;63.02
18500;BME280;9379;52.134;11.576;2023-06-22T11:56:46;101026.63;;;31.60;64.39
18500;BME280;9379;52.134;11.576;2023-06-22T11:59:15;101027.56;;;31.34;65.23
18500;BME280;9379;52.134;11.576;2023-06-22T12:01:42;101010.94;;;31.51;64.19
18500;BME280;9379;52.134;11.576;2023-06-22T12:04:10;101025.56;;;31.24;64.18
18500;BME280;9379;52.134;11.576;2023-06-22T12:06:37;101012.63;;;31.20;65.09
18500;BME280;9379;52.134;11.576;2023-06-22T12:09:07;101015.66;;;30.91;64.17
18500;BME280;9379;52.134;11.576;2023-06-22T12:11:34;101017.59;;;31.23;64.41
18500;BME280;9379;52.134;11.576;2023-06-22T12:14:01;101012.41;;;31.26;64.72
18500;BME280;9379;52.134;11.576;2023-06-22T12:16:27;101006.50;;;31.87;63.18
18500;BME280;9379;52.134;11.576;2023-06-22T12:18:54;101007.59;;;31.44;62.96
18500;BME280;9379;52.134;11.576;2023-06-22T12:21:22;100993.53;;;31.03;65.99
18500;BME280;9379;52.134;11.576;2023-06-22T12:23:49;100991.28;;;31.32;63.17
18500;BME280;9379;52.134;11.576;2023-06-22T12:26:16;100982.31;;;31.89;61.87
18500;BME280;9379;52.134;11.576;2023-06-22T12:28:43;100961.53;;;32.18;62.46
18500;BME280;9379;52.134;11.576;2023-06-22T12:31:09;100968.13;;;32.12;61.95
18500;BME280;9379;52.134;11.576;2023-06-22T12:33:36;100962.84;;;32.06;63.17
18500;BME280;9379;52.134;11.576;2023-06-22T12:36:03;100954.41;;;31.70;63.00
18500;BME280;9379;52.134;11.576;2023-06-22T12:38:32;100934.06;;;31.66;62.64
18500;BME280;9379;52.134;11.576;2023-06-22T12:40:58;100935.34;;;31.96;63.10
18500;BME280;9379;52.134;11.576;2023-06-22T12:43:25;100933.19;;;32.13;64.53
18500;BME280;9379;52.134;11.576;2023-06-22T12:45:52;100928.75;;;31.97;63.87
18500;BME280;9379;52.134;11.576;2023-06-22T12:48:21;100915.56;;;31.99;64.58
18500;BME280;9379;52.134;11.576;2023-06-22T12:50:48;100925.47;;;32.05;64.31
18500;BME280;9379;52.134;11.576;2023-06-22T12:53:15;100927.22;;;32.41;63.02